sensor_id;sensor_type;location;lat;lon;timestamp;temperature;humidity
74484;SHT31;62942;52.462;10.846;2023-08-31T00:00:34;13.4;97.2
74484;SHT31;62942;52.462;10.846;2023-08-31T00:01:43;13.4;97.1
74484;SHT31;62942;52.462;10.846;2023-08-31T00:02:43;13.4;97.1
74484;SHT31;62942;52.462;10.846;2023-08-31T00:03:53;13.4;97.1
74484;SHT31;62942;52.462;10.846;2023-08-31T00:04:53;13.4;96.9
74484;SHT31;62942;52.462;10.846;2023-08-31T00:06:04;13.4;97
74484;SHT31;62942;52.462;10.846;2023-08-31T00:07:04;13.4;97
74484;SHT31;62942;52.462;10.846;2023-08-31T00:08:13;13.4;97
74484;SHT31;62942;52.462;10.846;2023-08-31T00:09:23;13.4;96.9
74484;SHT31;62942;52.462;10.846;2023-08-31T00:10:23;13.4;96.5
74484;SHT31;62942;52.462;10.846;2023-08-31T00:11:33;13.4;96.6
74484;SHT31;62942;52.462;10.846;2023-08-31T00:12:34;13.5;96.6
74484;SHT31;62942;52.462;10.846;2023-08-31T00:13:43;13.5;96.5
74484;SHT31;62942;52.462;10.846;2023-08-31T00:14:43;13.5;96.4
74484;SHT31;62942;52.462;10.846;2023-08-31T00:15:54;13.5;96.5
74484;SHT31;62942;52.462;10.846;2023-08-31T00:17:04;13.5;96.4
74484;SHT31;62942;52.462;10.846;2023-08-31T00:18:04;13.5;96.3
74484;SHT31;62942;52.462;10.846;2023-08-31T00:19:14;13.5;96.3
74484;SHT31;62942;52.462;10.846;2023-08-31T00:20:14;13.5;96.3
74484;SHT31;62942;52.462;10.846;2023-08-31T00:21:23;13.5;96.1
74484;SHT31;62942;52.462;10.846;2023-08-31T00:22:23;13.5;96
74484;SHT31;62942;52.462;10.846;2023-08-31T00:23:33;13.5;96
74484;SHT31;62942;52.462;10.846;2023-08-31T00:24:33;13.5;95.8
74484;SHT31;62942;52.462;10.846;2023-08-31T00:25:43;13.5;95.9
74484;SHT31;62942;52.462;10.846;2023-08-31T00:26:43;13.5;95.9
74484;SHT31;62942;52.462;10.846;2023-08-31T00:27:44;13.5;95.8
74484;SHT31;62942;52.462;10.846;2023-08-31T00:28:53;13.5;95.8
74484;SHT31;62942;52.462;10.846;2023-08-31T00:30:04;13.4;95.8
74484;SHT31;62942;52.462;10.846;2023-08-31T00:31:04;13.4;95.8
74484;SHT31;62942;52.462;10.846;2023-08-31T00:32:13;13.4;95.8
74484;SHT31;62942;52.462;10.846;2023-08-31T00:33:25;13.4;95.8
74484;SHT31;62942;52.462;10.846;2023-08-31T00:34:33;13.4;95.7
74484;SHT31;62942;52.462;10.846;2023-08-31T00:35:44;13.4;95.7
74484;SHT31;62942;52.462;10.846;2023-08-31T00:36:44;13.4;95.7
74484;SHT31;62942;52.462;10.846;2023-08-31T00:37:54;13.3;95.7
74484;SHT31;62942;52.462;10.846;2023-08-31T00:39:04;13.3;95.7
74484;SHT31;62942;52.462;10.846;2023-08-31T00:40:13;13.3;95.7
74484;SHT31;62942;52.462;10.846;2023-08-31T00:41:13;13.3;95.7
74484;SHT31;62942;52.462;10.846;2023-08-31T00:42:23;13.3;95.7
74484;SHT31;62942;52.462;10.846;2023-08-31T00:43:23;13.3;95.7
74484;SHT31;62942;52.462;10.846;2023-08-31T00:44:23;13.3;95.7
74484;SHT31;62942;52.462;10.846;2023-08-31T00:45:33;13.3;95.8
74484;SHT31;62942;52.462;10.846;2023-08-31T00:46:34;13.2;95.8
74484;SHT31;62942;52.462;10.846;2023-08-31T00:47:33;13.3;95.9
74484;SHT31;62942;52.462;10.846;2023-08-31T00:48:33;13.2;96
74484;SHT31;62942;52.462;10.846;2023-08-31T00:49:43;13.2;96
74484;SHT31;62942;52.462;10.846;2023-08-31T00:50:44;13.2;95.8
74484;SHT31;62942;52.462;10.846;2023-08-31T00:51:53;13.2;95.9
74484;SHT31;62942;52.462;10.846;2023-08-31T00:53:03;13.2;95.9
74484;SHT31;62942;52.462;10.846;2023-08-31T00:54:13;13.2;96
74484;SHT31;62942;52.462;10.846;2023-08-31T00:55:23;13.2;96.1
74484;SHT31;62942;52.462;10.846;2023-08-31T00:56:23;13.2;96
74484;SHT31;62942;52.462;10.846;2023-08-31T00:57:33;13.2;96.1
74484;SHT31;62942;52.462;10.846;2023-08-31T00:58:33;13.2;96.1
74484;SHT31;62942;52.462;10.846;2023-08-31T00:59:33;13.2;96.1
74484;SHT31;62942;52.462;10.846;2023-08-31T01:00:46;13.2;96.1
74484;SHT31;62942;52.462;10.846;2023-08-31T01:01:46;13.2;96.1
74484;SHT31;62942;52.462;10.846;2023-08-31T01:02:55;13.3;96.1
74484;SHT31;62942;52.462;10.846;2023-08-31T01:03:56;13.2;96
74484;SHT31;62942;52.462;10.846;2023-08-31T01:05:05;13.2;96
74484;SHT31;62942;52.462;10.846;2023-08-31T01:06:15;13.3;96
74484;SHT31;62942;52.462;10.846;2023-08-31T01:07:15;13.2;96
74484;SHT31;62942;52.462;10.846;2023-08-31T01:08:25;13.2;96
74484;SHT31;62942;52.462;10.846;2023-08-31T01:09:34;13.3;96
74484;SHT31;62942;52.462;10.846;2023-08-31T01:10:35;13.2;95.9
74484;SHT31;62942;52.462;10.846;2023-08-31T01:11:45;13.3;95.9
74484;SHT31;62942;52.462;10.846;2023-08-31T01:12:54;13.2;95.9
74484;SHT31;62942;52.462;10.846;2023-08-31T01:13:56;13.2;95.9
74484;SHT31;62942;52.462;10.846;2023-08-31T01:15:04;13.2;95.9
74484;SHT31;62942;52.462;10.846;2023-08-31T01:16:13;13.2;95.9
74484;SHT31;62942;52.462;10.846;2023-08-31T01:17:14;13.2;95.8
74484;SHT31;62942;52.462;10.846;2023-08-31T01:18:14;13.2;95.9
74484;SHT31;62942;52.462;10.846;2023-08-31T01:20:26;13.2;95.9
74484;SHT31;62942;52.462;10.846;2023-08-31T01:21:34;13.2;95.9
74484;SHT31;62942;52.462;10.846;2023-08-31T01:22:46;13.2;95.9
74484;SHT31;62942;52.462;10.846;2023-08-31T01:23:54;13.1;95.8
74484;SHT31;62942;52.462;10.846;2023-08-31T01:25:03;13.1;95.8
74484;SHT31;62942;52.462;10.846;2023-08-31T01:26:13;13.1;95.9
74484;SHT31;62942;52.462;10.846;2023-08-31T01:27:13;13.1;95.9
74484;SHT31;62942;52.462;10.846;2023-08-31T01:28:23;13.1;96.1
74484;SHT31;62942;52.462;10.846;2023-08-31T01:29:23;13.1;96.1
74484;SHT31;62942;52.462;10.846;2023-08-31T01:30:33;13.1;96
74484;SHT31;62942;52.462;10.846;2023-08-31T01:31:40;13;96.1
74484;SHT31;62942;52.462;10.846;2023-08-31T01:32:44;13;96.1
74484;SHT31;62942;52.462;10.846;2023-08-31T01:33:53;13;96.1
74484;SHT31;62942;52.462;10.846;2023-08-31T01:35:03;13;96.1
74484;SHT31;62942;52.462;10.846;2023-08-31T01:36:04;13;96.1
74484;SHT31;62942;52.462;10.846;2023-08-31T01:37:04;13;96.1
74484;SHT31;62942;52.462;10.846;2023-08-31T01:38:14;12.9;96
74484;SHT31;62942;52.462;10.846;2023-08-31T01:39:24;12.9;96.1
74484;SHT31;62942;52.462;10.846;2023-08-31T01:40:34;12.9;96.2
74484;SHT31;62942;52.462;10.846;2023-08-31T01:41:44;12.9;96.1
74484;SHT31;62942;52.462;10.846;2023-08-31T01:42:53;12.9;96.1
74484;SHT31;62942;52.462;10.846;2023-08-31T01:43:53;12.9;96.1
74484;SHT31;62942;52.462;10.846;2023-08-31T01:45:04;12.8;96.2
74484;SHT31;62942;52.462;10.846;2023-08-31T01:46:13;12.8;96.1
74484;SHT31;62942;52.462;10.846;2023-08-31T01:47:23;12.8;96.2
74484;SHT31;62942;52.462;10.846;2023-08-31T01:48:37;12.8;96.1
74484;SHT31;62942;52.462;10.846;2023-08-31T01:49:43;12.7;96.3
74484;SHT31;62942;52.462;10.846;2023-08-31T01:50:53;12.7;96.3
74484;SHT31;62942;52.462;10.846;2023-08-31T01:52:03;12.7;96.3
74484;SHT31;62942;52.462;10.846;2023-08-31T01:53:13;12.7;96.3
74484;SHT31;62942;52.462;10.846;2023-08-31T01:54:13;12.7;96.3
74484;SHT31;62942;52.462;10.846;2023-08-31T01:55:23;12.6;96.4
74484;SHT31;62942;52.462;10.846;2023-08-31T01:56:33;12.6;96.4
74484;SHT31;62942;52.462;10.846;2023-08-31T01:57:43;12.6;96.3
74484;SHT31;62942;52.462;10.846;2023-08-31T01:58:53;12.6;96.4
74484;SHT31;62942;52.462;10.846;2023-08-31T02:00:04;12.6;96.4
74484;SHT31;62942;52.462;10.846;2023-08-31T02:01:03;12.6;96.3
74484;SHT31;62942;52.462;10.846;2023-08-31T02:02:13;12.5;96.5
74484;SHT31;62942;52.462;10.846;2023-08-31T02:03:23;12.5;96.4
74484;SHT31;62942;52.462;10.846;2023-08-31T02:04:33;12.5;96.4
74484;SHT31;62942;52.462;10.846;2023-08-31T02:05:43;12.5;96.3
74484;SHT31;62942;52.462;10.846;2023-08-31T02:06:53;12.4;96.3
74484;SHT31;62942;52.462;10.846;2023-08-31T02:08:03;12.4;96.2
74484;SHT31;62942;52.462;10.846;2023-08-31T02:09:13;12.4;96.6
74484;SHT31;62942;52.462;10.846;2023-08-31T02:10:13;12.4;96.6
74484;SHT31;62942;52.462;10.846;2023-08-31T02:11:23;12.4;96.4
74484;SHT31;62942;52.462;10.846;2023-08-31T02:12:33;12.3;96.7
74484;SHT31;62942;52.462;10.846;2023-08-31T02:13:43;12.3;96.6
74484;SHT31;62942;52.462;10.846;2023-08-31T02:14:53;12.3;96.7
74484;SHT31;62942;52.462;10.846;2023-08-31T02:16:03;12.3;96.9
74484;SHT31;62942;52.462;10.846;2023-08-31T02:17:13;12.3;96.8
74484;SHT31;62942;52.462;10.846;2023-08-31T02:18:23;12.3;97.1
74484;SHT31;62942;52.462;10.846;2023-08-31T02:19:23;12.2;97
74484;SHT31;62942;52.462;10.846;2023-08-31T02:20:33;12.2;96.9
74484;SHT31;62942;52.462;10.846;2023-08-31T02:21:43;12.2;97
74484;SHT31;62942;52.462;10.846;2023-08-31T02:22:53;12.2;97.2
74484;SHT31;62942;52.462;10.846;2023-08-31T02:24:03;12.2;97.2
74484;SHT31;62942;52.462;10.846;2023-08-31T02:25:03;12.2;97
74484;SHT31;62942;52.462;10.846;2023-08-31T02:26:13;12.2;97
74484;SHT31;62942;52.462;10.846;2023-08-31T02:27:13;12.1;97
74484;SHT31;62942;52.462;10.846;2023-08-31T02:28:23;12.1;97.1
74484;SHT31;62942;52.462;10.846;2023-08-31T02:29:23;12.1;97.3
74484;SHT31;62942;52.462;10.846;2023-08-31T02:30:23;12.1;97.3
74484;SHT31;62942;52.462;10.846;2023-08-31T02:31:33;12.1;97.2
74484;SHT31;62942;52.462;10.846;2023-08-31T02:32:33;12.1;97.4
74484;SHT31;62942;52.462;10.846;2023-08-31T02:33:43;12.1;97.2
74484;SHT31;62942;52.462;10.846;2023-08-31T02:34:53;12.1;97.3
74484;SHT31;62942;52.462;10.846;2023-08-31T02:36:03;12.1;97.4
74484;SHT31;62942;52.462;10.846;2023-08-31T02:37:13;12.1;97.3
74484;SHT31;62942;52.462;10.846;2023-08-31T02:38:23;12;97.3
74484;SHT31;62942;52.462;10.846;2023-08-31T02:39:33;12;97.3
74484;SHT31;62942;52.462;10.846;2023-08-31T02:40:45;12;97.2
74484;SHT31;62942;52.462;10.846;2023-08-31T02:41:53;12;97.3
74484;SHT31;62942;52.462;10.846;2023-08-31T02:43:03;12;97.2
74484;SHT31;62942;52.462;10.846;2023-08-31T02:44:13;12;97.2
74484;SHT31;62942;52.462;10.846;2023-08-31T02:45:13;12;97.1
74484;SHT31;62942;52.462;10.846;2023-08-31T02:46:13;11.9;97.1
74484;SHT31;62942;52.462;10.846;2023-08-31T02:47:23;11.9;97.3
74484;SHT31;62942;52.462;10.846;2023-08-31T02:48:33;11.9;97.4
74484;SHT31;62942;52.462;10.846;2023-08-31T02:49:43;11.9;97.3
74484;SHT31;62942;52.462;10.846;2023-08-31T02:50:53;11.9;97.3
74484;SHT31;62942;52.462;10.846;2023-08-31T02:52:03;11.9;97.2
74484;SHT31;62942;52.462;10.846;2023-08-31T02:53:03;11.9;97.4
74484;SHT31;62942;52.462;10.846;2023-08-31T02:54:13;11.9;97.3
74484;SHT31;62942;52.462;10.846;2023-08-31T02:55:23;11.8;97.3
74484;SHT31;62942;52.462;10.846;2023-08-31T02:56:23;11.8;97.4
74484;SHT31;62942;52.462;10.846;2023-08-31T02:57:33;11.8;97.5
74484;SHT31;62942;52.462;10.846;2023-08-31T02:58:43;11.8;97.5
74484;SHT31;62942;52.462;10.846;2023-08-31T02:59:43;11.8;97.5
74484;SHT31;62942;52.462;10.846;2023-08-31T03:00:53;11.8;97.4
74484;SHT31;62942;52.462;10.846;2023-08-31T03:01:53;11.8;97.4
74484;SHT31;62942;52.462;10.846;2023-08-31T03:03:03;11.8;97.4
74484;SHT31;62942;52.462;10.846;2023-08-31T03:04:13;11.7;97.4
74484;SHT31;62942;52.462;10.846;2023-08-31T03:05:23;11.8;97.6
74484;SHT31;62942;52.462;10.846;2023-08-31T03:06:33;11.7;97.5
74484;SHT31;62942;52.462;10.846;2023-08-31T03:07:43;11.7;97.4
74484;SHT31;62942;52.462;10.846;2023-08-31T03:08:53;11.7;97.5
74484;SHT31;62942;52.462;10.846;2023-08-31T03:09:53;11.7;97.5
74484;SHT31;62942;52.462;10.846;2023-08-31T03:10:53;11.8;97.8
74484;SHT31;62942;52.462;10.846;2023-08-31T03:12:03;11.7;97.7
74484;SHT31;62942;52.462;10.846;2023-08-31T03:13:13;11.8;97.7
74484;SHT31;62942;52.462;10.846;2023-08-31T03:14:23;11.8;97.7
74484;SHT31;62942;52.462;10.846;2023-08-31T03:15:33;11.7;97.6
74484;SHT31;62942;52.462;10.846;2023-08-31T03:16:33;11.7;97.6
74484;SHT31;62942;52.462;10.846;2023-08-31T03:17:43;11.7;97.5
74484;SHT31;62942;52.462;10.846;2023-08-31T03:18:53;11.7;97.7
74484;SHT31;62942;52.462;10.846;2023-08-31T03:20:03;11.7;97.5
74484;SHT31;62942;52.462;10.846;2023-08-31T03:21:13;11.7;97.6
74484;SHT31;62942;52.462;10.846;2023-08-31T03:22:23;11.7;97.7
74484;SHT31;62942;52.462;10.846;2023-08-31T03:23:33;11.7;97.6
74484;SHT31;62942;52.462;10.846;2023-08-31T03:24:33;11.7;97.6
74484;SHT31;62942;52.462;10.846;2023-08-31T03:25:43;11.7;97.5
74484;SHT31;62942;52.462;10.846;2023-08-31T03:26:53;11.7;97.6
74484;SHT31;62942;52.462;10.846;2023-08-31T03:28:03;11.7;97.6
74484;SHT31;62942;52.462;10.846;2023-08-31T03:29:13;11.7;97.5
74484;SHT31;62942;52.462;10.846;2023-08-31T03:30:23;11.7;97.7
74484;SHT31;62942;52.462;10.846;2023-08-31T03:31:23;11.7;97.6
74484;SHT31;62942;52.462;10.846;2023-08-31T03:32:23;11.7;97.6
74484;SHT31;62942;52.462;10.846;2023-08-31T03:33:33;11.7;97.7
74484;SHT31;62942;52.462;10.846;2023-08-31T03:34:43;11.7;97.8
74484;SHT31;62942;52.462;10.846;2023-08-31T03:35:53;11.7;97.6
74484;SHT31;62942;52.462;10.846;2023-08-31T03:37:03;11.7;97.7
74484;SHT31;62942;52.462;10.846;2023-08-31T03:38:13;11.7;97.7
74484;SHT31;62942;52.462;10.846;2023-08-31T03:39:23;11.7;97.7
74484;SHT31;62942;52.462;10.846;2023-08-31T03:40:23;11.7;97.6
74484;SHT31;62942;52.462;10.846;2023-08-31T03:41:33;11.7;97.6
74484;SHT31;62942;52.462;10.846;2023-08-31T03:42:43;11.7;97.6
74484;SHT31;62942;52.462;10.846;2023-08-31T03:43:43;11.7;97.6
74484;SHT31;62942;52.462;10.846;2023-08-31T03:44:53;11.7;97.6
74484;SHT31;62942;52.462;10.846;2023-08-31T03:46:03;11.7;97.6
74484;SHT31;62942;52.462;10.846;2023-08-31T03:47:03;11.7;97.6
74484;SHT31;62942;52.462;10.846;2023-08-31T03:48:13;11.7;97.6
74484;SHT31;62942;52.462;10.846;2023-08-31T03:49:23;11.7;97.5
74484;SHT31;62942;52.462;10.846;2023-08-31T03:50:33;11.7;97.5
74484;SHT31;62942;52.462;10.846;2023-08-31T03:51:33;11.7;97.5
74484;SHT31;62942;52.462;10.846;2023-08-31T03:52:43;11.6;97.5
74484;SHT31;62942;52.462;10.846;2023-08-31T03:53:43;11.6;97.6
74484;SHT31;62942;52.462;10.846;2023-08-31T03:54:43;11.6;97.7
74484;SHT31;62942;52.462;10.846;2023-08-31T03:55:53;11.6;97.5
74484;SHT31;62942;52.462;10.846;2023-08-31T03:57:03;11.6;97.6
74484;SHT31;62942;52.462;10.846;2023-08-31T03:58:03;11.6;97.7
74484;SHT31;62942;52.462;10.846;2023-08-31T03:59:13;11.6;97.6
74484;SHT31;62942;52.462;10.846;2023-08-31T04:00:23;11.6;97.7
74484;SHT31;62942;52.462;10.846;2023-08-31T04:01:23;11.6;97.6
74484;SHT31;62942;52.462;10.846;2023-08-31T04:02:33;11.6;97.7
74484;SHT31;62942;52.462;10.846;2023-08-31T04:03:43;11.6;97.6
74484;SHT31;62942;52.462;10.846;2023-08-31T04:04:53;11.6;97.7
74484;SHT31;62942;52.462;10.846;2023-08-31T04:05:53;11.6;97.7
74484;SHT31;62942;52.462;10.846;2023-08-31T04:07:03;11.6;97.7
74484;SHT31;62942;52.462;10.846;2023-08-31T04:08:13;11.6;97.7
74484;SHT31;62942;52.462;10.846;2023-08-31T04:09:13;11.6;97.7
74484;SHT31;62942;52.462;10.846;2023-08-31T04:10:23;11.6;97.7
74484;SHT31;62942;52.462;10.846;2023-08-31T04:11:33;11.6;97.6
74484;SHT31;62942;52.462;10.846;2023-08-31T04:12:43;11.6;97.6
74484;SHT31;62942;52.462;10.846;2023-08-31T04:13:53;11.6;97.6
74484;SHT31;62942;52.462;10.846;2023-08-31T04:14:53;11.6;97.7
74484;SHT31;62942;52.462;10.846;2023-08-31T04:16:03;11.6;97.6
74484;SHT31;62942;52.462;10.846;2023-08-31T04:17:03;11.6;97.7
74484;SHT31;62942;52.462;10.846;2023-08-31T04:18:13;11.6;97.7
74484;SHT31;62942;52.462;10.846;2023-08-31T04:19:13;11.6;97.6
74484;SHT31;62942;52.462;10.846;2023-08-31T04:20:23;11.6;97.6
74484;SHT31;62942;52.462;10.846;2023-08-31T04:21:23;11.6;97.6
74484;SHT31;62942;52.462;10.846;2023-08-31T04:22:33;11.6;97.6
74484;SHT31;62942;52.462;10.846;2023-08-31T04:23:43;11.5;97.5
74484;SHT31;62942;52.462;10.846;2023-08-31T04:24:43;11.6;97.7
74484;SHT31;62942;52.462;10.846;2023-08-31T04:25:53;11.6;97.7
74484;SHT31;62942;52.462;10.846;2023-08-31T04:26:53;11.6;97.6
74484;SHT31;62942;52.462;10.846;2023-08-31T04:28:03;11.6;97.6
74484;SHT31;62942;52.462;10.846;2023-08-31T04:29:13;11.6;97.6
74484;SHT31;62942;52.462;10.846;2023-08-31T04:30:23;11.5;97.6
74484;SHT31;62942;52.462;10.846;2023-08-31T04:31:23;11.5;97.5
74484;SHT31;62942;52.462;10.846;2023-08-31T04:32:33;11.5;97.5
74484;SHT31;62942;52.462;10.846;2023-08-31T04:33:33;11.5;97.4
74484;SHT31;62942;52.462;10.846;2023-08-31T04:34:43;11.5;97.4
74484;SHT31;62942;52.462;10.846;2023-08-31T04:35:53;11.5;97.4
74484;SHT31;62942;52.462;10.846;2023-08-31T04:36:53;11.4;97.4
74484;SHT31;62942;52.462;10.846;2023-08-31T04:38:03;11.4;97.4
74484;SHT31;62942;52.462;10.846;2023-08-31T04:39:13;11.4;97.4
74484;SHT31;62942;52.462;10.846;2023-08-31T04:40:13;11.4;97.4
74484;SHT31;62942;52.462;10.846;2023-08-31T04:41:23;11.4;97.4
74484;SHT31;62942;52.462;10.846;2023-08-31T04:42:33;11.4;97.5
74484;SHT31;62942;52.462;10.846;2023-08-31T04:43:33;11.4;97.7
74484;SHT31;62942;52.462;10.846;2023-08-31T04:44:43;11.5;97.7
74484;SHT31;62942;52.462;10.846;2023-08-31T04:45:43;11.5;97.7
74484;SHT31;62942;52.462;10.846;2023-08-31T04:46:53;11.5;97.9
74484;SHT31;62942;52.462;10.846;2023-08-31T04:47:53;11.6;97.8
74484;SHT31;62942;52.462;10.846;2023-08-31T04:48:53;11.6;97.8
74484;SHT31;62942;52.462;10.846;2023-08-31T04:49:53;11.6;97.7
74484;SHT31;62942;52.462;10.846;2023-08-31T04:51:03;11.6;97.7
74484;SHT31;62942;52.462;10.846;2023-08-31T04:52:13;11.6;97.7
74484;SHT31;62942;52.462;10.846;2023-08-31T04:53:23;11.7;97.7
74484;SHT31;62942;52.462;10.846;2023-08-31T04:54:23;11.7;97.7
74484;SHT31;62942;52.462;10.846;2023-08-31T04:55:33;11.7;97.7
74484;SHT31;62942;52.462;10.846;2023-08-31T04:56:33;11.7;97.7
74484;SHT31;62942;52.462;10.846;2023-08-31T04:57:43;11.7;97.7
74484;SHT31;62942;52.462;10.846;2023-08-31T04:58:53;11.7;97.7
74484;SHT31;62942;52.462;10.846;2023-08-31T05:00:25;11.7;97.6
74484;SHT31;62942;52.462;10.846;2023-08-31T05:01:03;11.8;97.6
74484;SHT31;62942;52.462;10.846;2023-08-31T05:02:13;11.8;97.5
74484;SHT31;62942;52.462;10.846;2023-08-31T05:03:13;11.8;97.6
74484;SHT31;62942;52.462;10.846;2023-08-31T05:04:23;11.8;97.5
74484;SHT31;62942;52.462;10.846;2023-08-31T05:05:33;11.9;97.5
74484;SHT31;62942;52.462;10.846;2023-08-31T05:06:43;11.9;97.4
74484;SHT31;62942;52.462;10.846;2023-08-31T05:07:53;11.9;97.4
74484;SHT31;62942;52.462;10.846;2023-08-31T05:09:03;12;97.4
74484;SHT31;62942;52.462;10.846;2023-08-31T05:10:13;12;97.1
74484;SHT31;62942;52.462;10.846;2023-08-31T05:11:13;12;97.2
74484;SHT31;62942;52.462;10.846;2023-08-31T05:12:24;12;97.2
74484;SHT31;62942;52.462;10.846;2023-08-31T05:13:23;12;97.2
74484;SHT31;62942;52.462;10.846;2023-08-31T05:14:33;12;97.1
74484;SHT31;62942;52.462;10.846;2023-08-31T05:15:43;12;97
74484;SHT31;62942;52.462;10.846;2023-08-31T05:16:43;12;96.8
74484;SHT31;62942;52.462;10.846;2023-08-31T05:17:43;12.1;96.9
74484;SHT31;62942;52.462;10.846;2023-08-31T05:18:53;12.1;96.9
74484;SHT31;62942;52.462;10.846;2023-08-31T05:19:53;12.1;96.7
74484;SHT31;62942;52.462;10.846;2023-08-31T05:21:03;12.1;96.7
74484;SHT31;62942;52.462;10.846;2023-08-31T05:22:13;12.1;96.6
74484;SHT31;62942;52.462;10.846;2023-08-31T05:23:23;12.1;96.6
74484;SHT31;62942;52.462;10.846;2023-08-31T05:24:33;12.2;96.6
74484;SHT31;62942;52.462;10.846;2023-08-31T05:25:43;12.2;96.5
74484;SHT31;62942;52.462;10.846;2023-08-31T05:26:43;12.2;96.4
74484;SHT31;62942;52.462;10.846;2023-08-31T05:27:53;12.2;96.3
74484;SHT31;62942;52.462;10.846;2023-08-31T05:28:53;12.3;96.2
74484;SHT31;62942;52.462;10.846;2023-08-31T05:30:03;12.3;96.3
74484;SHT31;62942;52.462;10.846;2023-08-31T05:31:03;12.3;96.1
74484;SHT31;62942;52.462;10.846;2023-08-31T05:32:03;12.4;95.8
74484;SHT31;62942;52.462;10.846;2023-08-31T05:33:13;12.4;95.9
74484;SHT31;62942;52.462;10.846;2023-08-31T05:34:15;12.4;95.5
74484;SHT31;62942;52.462;10.846;2023-08-31T05:35:13;12.4;95.6
74484;SHT31;62942;52.462;10.846;2023-08-31T05:36:13;12.5;95.5
74484;SHT31;62942;52.462;10.846;2023-08-31T05:37:23;12.5;95.4
74484;SHT31;62942;52.462;10.846;2023-08-31T05:38:33;12.5;95.2
74484;SHT31;62942;52.462;10.846;2023-08-31T05:39:33;12.5;95
74484;SHT31;62942;52.462;10.846;2023-08-31T05:40:43;12.5;95.1
74484;SHT31;62942;52.462;10.846;2023-08-31T05:41:43;12.5;94.9
74484;SHT31;62942;52.462;10.846;2023-08-31T05:42:53;12.5;94.8
74484;SHT31;62942;52.462;10.846;2023-08-31T05:43:53;12.5;94.8
74484;SHT31;62942;52.462;10.846;2023-08-31T05:45:03;12.5;94.7
74484;SHT31;62942;52.462;10.846;2023-08-31T05:46:03;12.5;94.7
74484;SHT31;62942;52.462;10.846;2023-08-31T05:47:03;12.5;94.6
74484;SHT31;62942;52.462;10.846;2023-08-31T05:48:13;12.5;94.5
74484;SHT31;62942;52.462;10.846;2023-08-31T05:49:23;12.5;94.5
74484;SHT31;62942;52.462;10.846;2023-08-31T05:50:33;12.6;94.4
74484;SHT31;62942;52.462;10.846;2023-08-31T05:51:43;12.7;94.3
74484;SHT31;62942;52.462;10.846;2023-08-31T05:52:53;12.8;94.2
74484;SHT31;62942;52.462;10.846;2023-08-31T05:54:03;13;92.9
74484;SHT31;62942;52.462;10.846;2023-08-31T05:55:13;13.1;92.6
74484;SHT31;62942;52.462;10.846;2023-08-31T05:56:13;13.1;92.7
74484;SHT31;62942;52.462;10.846;2023-08-31T05:57:23;13.2;92.5
74484;SHT31;62942;52.462;10.846;2023-08-31T05:58:23;13.3;92.3
74484;SHT31;62942;52.462;10.846;2023-08-31T05:59:33;13.4;92.1
74484;SHT31;62942;52.462;10.846;2023-08-31T06:00:33;13.5;91.2
74484;SHT31;62942;52.462;10.846;2023-08-31T06:03:26;13.7;90.5
74484;SHT31;62942;52.462;10.846;2023-08-31T06:04:58;13.8;90.3
74484;SHT31;62942;52.462;10.846;2023-08-31T06:05:03;13.9;90.1
74484;SHT31;62942;52.462;10.846;2023-08-31T06:06:03;13.9;89.9
74484;SHT31;62942;52.462;10.846;2023-08-31T06:07:13;14;89.4
74484;SHT31;62942;52.462;10.846;2023-08-31T06:08:23;14.1;89.2
74484;SHT31;62942;52.462;10.846;2023-08-31T06:09:33;14.2;88.7
74484;SHT31;62942;52.462;10.846;2023-08-31T06:10:33;14.3;88.8
74484;SHT31;62942;52.462;10.846;2023-08-31T06:11:43;14.5;88.5
74484;SHT31;62942;52.462;10.846;2023-08-31T06:12:43;14.7;88.2
74484;SHT31;62942;52.462;10.846;2023-08-31T06:13:53;14.8;87.8
74484;SHT31;62942;52.462;10.846;2023-08-31T06:15:03;15;87.3
74484;SHT31;62942;52.462;10.846;2023-08-31T06:16:03;15.1;86.2
74484;SHT31;62942;52.462;10.846;2023-08-31T06:17:13;15.2;84.4
74484;SHT31;62942;52.462;10.846;2023-08-31T06:18:23;15.3;84.2
74484;SHT31;62942;52.462;10.846;2023-08-31T06:19:33;15.3;84.5
74484;SHT31;62942;52.462;10.846;2023-08-31T06:20:43;15.4;84.2
74484;SHT31;62942;52.462;10.846;2023-08-31T06:21:53;15.5;84
74484;SHT31;62942;52.462;10.846;2023-08-31T06:22:53;15.6;83.7
74484;SHT31;62942;52.462;10.846;2023-08-31T06:23:53;15.7;83.4
74484;SHT31;62942;52.462;10.846;2023-08-31T06:25:03;15.7;83
74484;SHT31;62942;52.462;10.846;2023-08-31T08:56:37;18.2;67.7
74484;SHT31;62942;52.462;10.846;2023-08-31T08:57:47;18;67.4
74484;SHT31;62942;52.462;10.846;2023-08-31T08:58:57;17.9;67.9
74484;SHT31;62942;52.462;10.846;2023-08-31T08:59:57;17.8;68.1
74484;SHT31;62942;52.462;10.846;2023-08-31T09:01:07;17.8;68.5
74484;SHT31;62942;52.462;10.846;2023-08-31T09:02:07;17.8;68.1
74484;SHT31;62942;52.462;10.846;2023-08-31T09:03:17;17.7;68.1
74484;SHT31;62942;52.462;10.846;2023-08-31T09:04:17;17.7;68.5
74484;SHT31;62942;52.462;10.846;2023-08-31T09:05:17;17.6;69.1
74484;SHT31;62942;52.462;10.846;2023-08-31T09:06:27;17.6;69.4
74484;SHT31;62942;52.462;10.846;2023-08-31T09:07:38;17.6;69.6
74484;SHT31;62942;52.462;10.846;2023-08-31T09:08:52;17.7;69.5
74484;SHT31;62942;52.462;10.846;2023-08-31T09:09:58;17.7;69.5
74484;SHT31;62942;52.462;10.846;2023-08-31T09:10:57;17.7;69
74484;SHT31;62942;52.462;10.846;2023-08-31T09:12:06;17.8;69.1
74484;SHT31;62942;52.462;10.846;2023-08-31T09:13:07;17.9;69.1
74484;SHT31;62942;52.462;10.846;2023-08-31T09:16:31;18;67.8
74484;SHT31;62942;52.462;10.846;2023-08-31T09:16:37;18.1;68
74484;SHT31;62942;52.462;10.846;2023-08-31T09:17:47;18.2;68.1
74484;SHT31;62942;52.462;10.846;2023-08-31T09:18:47;18.2;67.9
74484;SHT31;62942;52.462;10.846;2023-08-31T09:19:58;18.4;67.7
74484;SHT31;62942;52.462;10.846;2023-08-31T09:20:57;18.6;66.8
74484;SHT31;62942;52.462;10.846;2023-08-31T09:22:07;18.9;65.9
74484;SHT31;62942;52.462;10.846;2023-08-31T09:23:08;19.1;65
74484;SHT31;62942;52.462;10.846;2023-08-31T09:24:17;19.4;64.2
74484;SHT31;62942;52.462;10.846;2023-08-31T09:25:17;19.6;63.4
74484;SHT31;62942;52.462;10.846;2023-08-31T09:26:27;19.9;61.4
74484;SHT31;62942;52.462;10.846;2023-08-31T09:27:27;20;60.5
74484;SHT31;62942;52.462;10.846;2023-08-31T09:28:27;20.2;60.2
74484;SHT31;62942;52.462;10.846;2023-08-31T09:29:27;20.4;59.7
74484;SHT31;62942;52.462;10.846;2023-08-31T09:30:37;20.5;58.6
74484;SHT31;62942;52.462;10.846;2023-08-31T09:31:37;20.7;59.5
74484;SHT31;62942;52.462;10.846;2023-08-31T09:32:54;20.7;58
74484;SHT31;62942;52.462;10.846;2023-08-31T09:33:50;20.8;58.5
74484;SHT31;62942;52.462;10.846;2023-08-31T09:34:57;20.9;57.1
74484;SHT31;62942;52.462;10.846;2023-08-31T09:35:57;20.8;56.8
74484;SHT31;62942;52.462;10.846;2023-08-31T09:37:07;20.6;57.8
74484;SHT31;62942;52.462;10.846;2023-08-31T09:38:07;20.4;58.2
74484;SHT31;62942;52.462;10.846;2023-08-31T09:40:18;20;59.7
74484;SHT31;62942;52.462;10.846;2023-08-31T09:43:37;19.9;60.4
74484;SHT31;62942;52.462;10.846;2023-08-31T09:44:49;20;61.1
74484;SHT31;62942;52.462;10.846;2023-08-31T09:45:57;20.2;60